createdAt,value
2019-02-06T00:00:48.727Z,89.30
2019-02-06T00:03:21.255Z,89.40
2019-02-06T00:05:50.768Z,89.40
2019-02-06T00:08:20.236Z,89.40
2019-02-06T00:10:49.479Z,89.40
2019-02-06T00:13:18.744Z,89.30
2019-02-06T00:15:48.508Z,89.30
2019-02-06T00:18:17.768Z,89.40
2019-02-06T00:20:47.099Z,89.40
2019-02-06T00:23:16.379Z,90.10
2019-02-06T00:25:45.848Z,89.50
2019-02-06T00:28:15.097Z,89.60
2019-02-06T00:30:46.199Z,89.60
2019-02-06T00:33:15.505Z,89.60
2019-02-06T00:35:44.775Z,89.70
2019-02-06T00:38:14.104Z,89.60
2019-02-06T00:40:43.439Z,89.60
2019-02-06T00:43:12.719Z,89.60
2019-02-06T00:45:42.331Z,89.50
2019-02-06T00:48:11.639Z,89.60
2019-02-06T00:50:40.908Z,89.70
2019-02-06T00:53:10.295Z,89.70
2019-02-06T00:55:39.715Z,89.70
2019-02-06T00:58:08.918Z,89.70
2019-02-06T01:00:38.672Z,89.70
2019-02-06T01:03:08.344Z,89.70
2019-02-06T01:05:38.877Z,89.80
2019-02-06T01:08:08.423Z,89.70
2019-02-06T01:10:38.555Z,89.70
2019-02-06T01:13:07.991Z,89.70
2019-02-06T01:15:37.675Z,89.70
2019-02-06T01:18:06.971Z,89.70
2019-02-06T01:20:36.227Z,89.70
2019-02-06T01:23:05.763Z,89.70
2019-02-06T01:25:35.128Z,89.70
2019-02-06T01:28:04.423Z,89.80
2019-02-06T01:30:52.708Z,89.70
2019-02-06T01:33:22.038Z,89.70
2019-02-06T01:35:51.318Z,89.70
2019-02-06T01:38:20.673Z,89.80
2019-02-06T01:40:50.049Z,89.70
2019-02-06T01:43:19.690Z,89.70
2019-02-06T01:45:48.972Z,89.70
2019-02-06T01:48:18.323Z,89.80
2019-02-06T01:50:47.554Z,89.80
2019-02-06T01:53:16.822Z,89.80
2019-02-06T01:55:46.058Z,89.90
2019-02-06T01:58:15.293Z,89.80
2019-02-06T02:00:44.658Z,89.80
2019-02-06T02:03:13.998Z,89.90
2019-02-06T02:05:43.274Z,89.80
2019-02-06T02:08:12.518Z,89.80
2019-02-06T02:10:42.009Z,89.90
2019-02-06T02:13:11.258Z,89.90
2019-02-06T02:15:40.793Z,90.00
2019-02-06T02:18:10.065Z,89.80
2019-02-06T02:20:39.400Z,89.80
2019-02-06T02:23:08.669Z,89.80
2019-02-06T02:25:37.890Z,89.90
2019-02-06T02:28:07.241Z,89.90
2019-02-06T02:30:43.496Z,89.90
2019-02-06T02:33:12.822Z,89.90
2019-02-06T02:35:42.103Z,89.90
2019-02-06T02:38:11.379Z,90.00
2019-02-06T02:40:40.658Z,89.90
2019-02-06T02:43:10.241Z,90.00
2019-02-06T02:45:39.574Z,89.90
2019-02-06T02:48:09.022Z,90.00
2019-02-06T02:50:38.265Z,90.00
2019-02-06T02:53:07.534Z,90.00
2019-02-06T02:55:36.789Z,90.00
2019-02-06T02:58:07.753Z,90.00
2019-02-06T03:00:48.546Z,90.00
2019-02-06T03:03:36.833Z,90.00
2019-02-06T03:06:06.433Z,90.00
2019-02-06T03:08:35.858Z,90.00
2019-02-06T03:11:05.490Z,90.10
2019-02-06T03:13:34.747Z,90.10
2019-02-06T03:16:04.212Z,90.00
2019-02-06T03:18:33.476Z,90.10
2019-02-06T03:21:02.869Z,90.00
2019-02-06T03:23:32.094Z,90.10
2019-02-06T03:26:01.342Z,90.10
2019-02-06T03:28:30.610Z,90.10
2019-02-06T03:30:59.887Z,90.10
2019-02-06T03:33:29.150Z,90.10
2019-02-06T03:35:58.432Z,90.10
2019-02-06T03:38:27.689Z,90.10
2019-02-06T03:40:57.005Z,90.10
2019-02-06T03:43:26.372Z,90.10
2019-02-06T03:45:55.628Z,90.10
2019-02-06T03:48:25.060Z,90.10
2019-02-06T03:50:54.503Z,90.10
2019-02-06T03:53:24.055Z,90.10
2019-02-06T03:55:53.332Z,90.10
2019-02-06T03:58:22.569Z,90.20
2019-02-06T04:00:51.847Z,90.10
2019-02-06T04:03:21.248Z,90.10
2019-02-06T04:05:50.530Z,90.20
2019-02-06T04:08:20.120Z,90.10
2019-02-06T04:10:49.431Z,90.10
2019-02-06T04:13:18.719Z,90.10
2019-02-06T04:15:48.019Z,90.10
2019-02-06T04:18:17.259Z,90.10
2019-02-06T04:20:46.535Z,90.10
2019-02-06T04:23:18.196Z,90.10
2019-02-06T04:25:47.471Z,90.10
2019-02-06T04:28:16.820Z,90.10
2019-02-06T04:30:46.123Z,90.10
2019-02-06T04:33:15.372Z,90.10
2019-02-06T04:35:44.639Z,89.90
2019-02-06T04:38:14.128Z,89.90
2019-02-06T04:40:43.459Z,90.00
2019-02-06T04:43:12.739Z,90.10
2019-02-06T04:45:42.023Z,90.10
2019-02-06T04:48:11.311Z,90.10
2019-02-06T04:50:40.656Z,90.10
2019-02-06T04:53:10.347Z,90.10
2019-02-06T04:55:39.719Z,90.10
2019-02-06T04:58:09.047Z,90.10
2019-02-06T05:00:39.224Z,90.10
2019-02-06T05:03:08.507Z,90.10
2019-02-06T05:05:37.839Z,90.10
2019-02-06T05:08:08.792Z,90.10
2019-02-06T05:10:38.034Z,90.10
2019-02-06T05:13:07.330Z,90.10
2019-02-06T05:15:36.586Z,90.10
2019-02-06T05:18:05.758Z,90.20
2019-02-06T05:20:37.570Z,90.10
2019-02-06T05:23:08.390Z,90.10
2019-02-06T05:25:37.682Z,90.20
2019-02-06T05:28:07.638Z,90.20
2019-02-06T05:30:37.034Z,90.20
2019-02-06T05:33:06.319Z,90.20
2019-02-06T05:35:35.840Z,90.20
2019-02-06T05:38:05.676Z,90.20
2019-02-06T05:40:34.938Z,90.20
2019-02-06T05:43:04.234Z,90.20
2019-02-06T05:45:33.462Z,90.20
2019-02-06T05:48:02.798Z,90.20
2019-02-06T05:50:32.055Z,90.20
2019-02-06T05:53:01.322Z,90.20
2019-02-06T05:55:30.803Z,90.20
2019-02-06T05:58:00.249Z,90.20
2019-02-06T06:00:40.937Z,90.20
2019-02-06T06:03:11.071Z,90.20
2019-02-06T06:05:40.387Z,90.20
2019-02-06T06:08:10.083Z,90.20
2019-02-06T06:10:39.354Z,90.20
2019-02-06T06:13:08.665Z,90.20
2019-02-06T06:15:37.949Z,90.20
2019-02-06T06:18:07.297Z,90.20
2019-02-06T06:20:36.569Z,90.20
2019-02-06T06:23:05.810Z,90.20
2019-02-06T06:25:35.113Z,90.20
2019-02-06T06:28:04.489Z,90.20
2019-02-06T06:30:33.835Z,90.20
2019-02-06T06:33:03.389Z,90.20
2019-02-06T06:35:32.771Z,90.20
2019-02-06T06:38:02.586Z,90.20
2019-02-06T06:40:32.089Z,90.20
2019-02-06T06:43:01.473Z,90.20
2019-02-06T06:45:30.749Z,90.20
2019-02-06T06:48:00.022Z,90.20
2019-02-06T06:50:29.253Z,90.20
2019-02-06T06:52:58.526Z,90.20
2019-02-06T06:55:28.099Z,90.20
2019-02-06T06:57:57.345Z,90.20
2019-02-06T07:00:28.193Z,90.20
2019-02-06T07:02:57.555Z,90.20
2019-02-06T07:05:27.508Z,90.30
2019-02-06T07:08:08.819Z,90.30
2019-02-06T07:10:28.085Z,90.30
2019-02-06T07:12:57.340Z,90.30
2019-02-06T07:15:28.992Z,90.30
2019-02-06T07:17:58.442Z,90.30
2019-02-06T07:20:27.713Z,90.30
2019-02-06T07:22:56.957Z,90.40
2019-02-06T07:25:26.221Z,90.40
2019-02-06T07:27:55.465Z,90.40
2019-02-06T07:30:30.068Z,90.40
2019-02-06T07:32:59.313Z,90.40
2019-02-06T07:35:28.844Z,90.40
2019-02-06T07:37:58.325Z,90.40
2019-02-06T07:40:27.700Z,90.30
2019-02-06T07:42:57.124Z,90.30
2019-02-06T07:45:26.396Z,90.30
2019-02-06T07:47:55.635Z,90.30
2019-02-06T07:50:27.188Z,90.30
2019-02-06T07:52:56.733Z,90.30
2019-02-06T07:55:26.355Z,90.30
2019-02-06T07:57:55.903Z,90.30
2019-02-06T08:00:25.624Z,90.30
2019-02-06T08:02:55.200Z,90.30
2019-02-06T08:05:24.479Z,90.30
2019-02-06T08:07:54.063Z,90.20
2019-02-06T08:10:25.815Z,90.10
2019-02-06T08:12:55.254Z,90.20
2019-02-06T08:15:24.619Z,90.10
2019-02-06T08:17:53.879Z,90.10
2019-02-06T08:20:23.725Z,90.10
2019-02-06T08:22:53.635Z,90.10
2019-02-06T08:25:23.327Z,90.10
2019-02-06T08:27:52.909Z,90.10
2019-02-06T08:30:27.738Z,90.10
2019-02-06T08:32:56.992Z,90.10
2019-02-06T08:35:26.263Z,90.00
2019-02-06T08:37:55.715Z,90.00
2019-02-06T08:40:25.524Z,89.90
2019-02-06T08:42:54.942Z,90.00
2019-02-06T08:45:24.303Z,90.00
2019-02-06T08:47:53.778Z,90.00
2019-02-06T08:50:23.398Z,89.90
2019-02-06T08:52:52.938Z,89.70
2019-02-06T08:55:24.438Z,89.70
2019-02-06T08:57:54.866Z,89.60
2019-02-06T09:00:29.263Z,89.40
2019-02-06T09:02:58.550Z,89.40
2019-02-06T09:05:28.159Z,89.40
2019-02-06T09:07:57.454Z,89.40
2019-02-06T09:10:26.898Z,89.30
2019-02-06T09:12:57.014Z,89.20
2019-02-06T09:15:27.425Z,89.10
2019-02-06T09:17:57.174Z,89.00
2019-02-06T09:20:27.139Z,88.90
2019-02-06T09:22:56.738Z,88.80
2019-02-06T09:25:26.002Z,89.60
2019-02-06T09:27:55.714Z,88.80
2019-02-06T09:30:26.634Z,88.70
2019-02-06T09:32:57.102Z,88.60
2019-02-06T09:35:26.752Z,88.40
2019-02-06T09:37:56.003Z,88.20
2019-02-06T09:40:27.186Z,88.20
2019-02-06T09:42:56.566Z,87.90
2019-02-06T09:45:26.174Z,87.90
2019-02-06T09:47:55.459Z,87.60
2019-02-06T09:50:33.532Z,87.50
2019-02-06T09:53:02.771Z,87.40
2019-02-06T09:55:32.057Z,87.30
2019-02-06T09:58:01.359Z,87.30
2019-02-06T10:00:33.150Z,87.10
2019-02-06T10:03:02.734Z,87.00
2019-02-06T10:05:32.130Z,86.90
2019-02-06T10:08:02.009Z,86.70
2019-02-06T10:10:31.295Z,86.70
2019-02-06T10:13:00.574Z,86.50
2019-02-06T10:15:32.202Z,86.40
2019-02-06T10:18:02.545Z,86.10
2019-02-06T10:20:34.278Z,85.80
2019-02-06T10:23:03.858Z,85.40
2019-02-06T10:25:33.209Z,85.00
2019-02-06T10:28:02.505Z,84.50
2019-02-06T10:30:37.378Z,84.10
2019-02-06T10:33:06.930Z,83.90
2019-02-06T10:35:36.245Z,83.40
2019-02-06T10:38:06.806Z,83.10
2019-02-06T10:40:36.169Z,82.50
2019-02-06T10:43:06.019Z,82.20
2019-02-06T10:45:35.749Z,81.80
2019-02-06T10:48:05.490Z,81.40
2019-02-06T10:50:37.257Z,80.90
2019-02-06T10:53:06.613Z,80.30
2019-02-06T10:55:35.905Z,80.00
2019-02-06T10:58:05.575Z,79.80
2019-02-06T11:00:38.278Z,79.70
2019-02-06T11:03:07.545Z,79.30
2019-02-06T11:05:36.889Z,79.00
2019-02-06T11:08:06.654Z,78.80
2019-02-06T11:10:35.939Z,78.80
2019-02-06T11:13:05.946Z,78.70
2019-02-06T11:15:35.718Z,78.40
2019-02-06T11:18:05.409Z,78.00
2019-02-06T11:20:35.373Z,77.80
2019-02-06T11:23:05.189Z,77.60
2019-02-06T11:25:34.728Z,77.40
2019-02-06T11:28:04.196Z,77.40
2019-02-06T11:30:34.208Z,77.50
2019-02-06T11:33:03.692Z,77.30
2019-02-06T11:35:33.005Z,77.80
2019-02-06T11:38:02.284Z,76.90
2019-02-06T11:40:31.548Z,76.80
2019-02-06T11:43:00.856Z,76.60
2019-02-06T11:45:31.930Z,76.40
2019-02-06T11:48:01.743Z,76.20
2019-02-06T11:50:37.670Z,76.00
2019-02-06T11:53:08.276Z,75.90
2019-02-06T11:55:37.553Z,75.60
2019-02-06T11:58:07.580Z,75.50
2019-02-06T12:00:48.773Z,75.50
2019-02-06T12:03:18.062Z,75.30
2019-02-06T12:05:47.316Z,75.30
2019-02-06T12:08:16.588Z,75.20
2019-02-06T12:10:46.157Z,75.10
2019-02-06T12:13:15.560Z,75.00
2019-02-06T12:15:44.911Z,74.90
2019-02-06T12:18:14.184Z,74.80
2019-02-06T12:20:43.423Z,74.70
2019-02-06T12:23:12.796Z,74.70
2019-02-06T12:25:42.072Z,74.50
2019-02-06T12:28:11.427Z,74.40
2019-02-06T12:30:40.770Z,74.20
2019-02-06T12:33:10.048Z,74.00
2019-02-06T12:35:39.291Z,73.70
2019-02-06T12:38:08.571Z,73.20
2019-02-06T12:40:37.855Z,72.80
2019-02-06T12:43:10.605Z,72.70
2019-02-06T12:45:38.936Z,72.50
2019-02-06T12:48:08.980Z,72.50
2019-02-06T12:50:38.363Z,72.30
2019-02-06T12:53:07.613Z,72.30
2019-02-06T12:55:38.096Z,71.90
2019-02-06T12:58:08.340Z,71.90
2019-02-06T13:00:38.715Z,71.50
2019-02-06T13:03:07.940Z,71.30
2019-02-06T13:05:37.523Z,71.30
2019-02-06T13:08:07.473Z,71.10
2019-02-06T13:10:36.729Z,71.10
2019-02-06T13:13:06.655Z,71.00
2019-02-06T13:15:36.284Z,70.90
2019-02-06T13:18:05.862Z,71.00
2019-02-06T13:20:35.198Z,70.90
2019-02-06T13:23:04.999Z,70.80
2019-02-06T13:25:34.255Z,70.50
2019-02-06T13:28:03.727Z,70.30
2019-02-06T13:30:35.626Z,70.00
2019-02-06T13:33:06.259Z,70.10
2019-02-06T13:35:35.550Z,68.10
2019-02-06T13:38:05.169Z,67.20
2019-02-06T13:40:45.178Z,67.10
2019-02-06T13:43:05.527Z,67.20
2019-02-06T13:45:40.266Z,67.40
2019-02-06T13:48:09.574Z,67.70
2019-02-06T13:50:38.843Z,67.70
2019-02-06T13:53:08.078Z,66.90
2019-02-06T13:55:37.442Z,65.90
2019-02-06T13:58:07.085Z,65.00
2019-02-06T14:00:37.398Z,64.20
2019-02-06T14:03:07.470Z,63.30
2019-02-06T14:05:37.386Z,63.00
2019-02-06T14:08:11.918Z,63.30
2019-02-06T14:10:41.182Z,63.70
2019-02-06T14:13:10.472Z,63.80
2019-02-06T14:15:41.169Z,64.10
2019-02-06T14:18:10.953Z,64.30
2019-02-06T14:20:40.469Z,64.40
2019-02-06T14:23:33.197Z,64.10
2019-02-06T14:26:23.481Z,63.60
2019-02-06T14:29:42.662Z,62.90
2019-02-06T14:32:54.809Z,62.40
2019-02-06T14:35:58.698Z,62.60
2019-02-06T14:39:11.237Z,63.40
2019-02-06T14:42:16.265Z,64.30
2019-02-06T14:45:50.997Z,65.00
2019-02-06T14:49:03.749Z,65.40
2019-02-06T14:52:29.389Z,65.80
2019-02-06T14:55:30.838Z,66.30
2019-02-06T14:58:37.037Z,66.50
2019-02-06T15:01:35.033Z,66.70
2019-02-06T15:05:03.377Z,66.80
2019-02-06T15:08:03.617Z,67.00
2019-02-06T15:10:44.158Z,67.20
2019-02-06T15:13:53.505Z,67.40
2019-02-06T15:16:50.500Z,67.70
2019-02-06T15:19:58.473Z,67.90
2019-02-06T15:23:32.873Z,68.10
2019-02-06T15:26:40.952Z,68.30
2019-02-06T15:29:20.973Z,68.60
2019-02-06T15:32:14.181Z,68.90
2019-02-06T15:35:11.668Z,69.20
2019-02-06T15:38:08.624Z,69.30
2019-02-06T15:41:18.764Z,69.60
2019-02-06T15:44:25.020Z,69.80
2019-02-06T15:47:31.312Z,70.10
2019-02-06T15:50:14.102Z,70.20
2019-02-06T15:53:13.128Z,70.20
2019-02-06T15:56:10.500Z,70.30
2019-02-06T15:59:15.760Z,70.40
2019-02-06T16:02:07.964Z,70.50
2019-02-06T16:05:28.625Z,70.50
2019-02-06T16:08:31.635Z,70.70
2019-02-06T16:11:42.531Z,70.80
2019-02-06T16:14:50.283Z,71.10
2019-02-06T16:17:54.231Z,71.20
2019-02-06T16:20:58.576Z,71.50
2019-02-06T16:24:06.256Z,71.70
2019-02-06T16:27:10.443Z,72.10
2019-02-06T16:30:26.403Z,72.30
2019-02-06T16:33:14.619Z,72.50
2019-02-06T16:36:23.762Z,72.70
2019-02-06T16:39:07.020Z,73.00
2019-02-06T16:42:26.196Z,73.20
2019-02-06T16:45:16.315Z,73.40
2019-02-06T16:47:58.357Z,73.60
2019-02-06T16:51:20.896Z,73.70
2019-02-06T16:54:15.911Z,73.90
2019-02-06T16:57:15.315Z,74.10
2019-02-06T17:00:23.269Z,74.20
2019-02-06T17:03:18.351Z,74.30
2019-02-06T17:06:07.212Z,74.40
2019-02-06T17:09:29.603Z,74.40
2019-02-06T17:12:27.379Z,74.50
2019-02-06T17:15:27.055Z,74.60
2019-02-06T17:18:32.583Z,74.60
2019-02-06T17:21:43.399Z,74.80
2019-02-06T17:24:51.655Z,74.70
2019-02-06T17:27:47.149Z,74.80
2019-02-06T17:30:59.131Z,74.90
2019-02-06T17:34:03.451Z,75.00
2019-02-06T17:37:11.875Z,75.10
2019-02-06T17:40:09.432Z,75.10
2019-02-06T17:42:59.935Z,75.80
2019-02-06T17:46:03.067Z,75.10
2019-02-06T17:49:26.027Z,75.30
2019-02-06T17:52:51.395Z,75.20
2019-02-06T17:55:22.654Z,75.30
2019-02-06T17:57:54.902Z,75.20
2019-02-06T18:00:37.563Z,75.30
2019-02-06T18:03:08.395Z,75.30
2019-02-06T18:05:40.182Z,75.40
2019-02-06T18:08:08.714Z,75.50
2019-02-06T18:10:38.194Z,75.50
2019-02-06T18:13:07.975Z,76.00
2019-02-06T18:15:37.346Z,75.40
2019-02-06T18:18:06.706Z,75.50
2019-02-06T18:20:36.118Z,75.50
2019-02-06T18:23:06.418Z,75.60
2019-02-06T18:25:35.806Z,75.50
2019-02-06T18:28:05.761Z,75.60
2019-02-06T18:30:35.166Z,75.60
2019-02-06T18:33:05.311Z,75.50
2019-02-06T18:35:34.637Z,75.50
2019-02-06T18:38:03.958Z,75.30
2019-02-06T18:40:33.924Z,75.30
2019-02-06T18:43:03.209Z,75.30
2019-02-06T18:45:32.470Z,75.30
2019-02-06T18:48:02.832Z,75.20
2019-02-06T18:50:32.432Z,75.20
2019-02-06T18:53:02.742Z,75.20
2019-02-06T18:55:32.006Z,75.20
2019-02-06T18:58:01.377Z,75.20
2019-02-06T19:00:32.494Z,75.20
2019-02-06T19:03:03.007Z,75.20
2019-02-06T19:05:34.859Z,75.20
2019-02-06T19:08:04.171Z,75.30
2019-02-06T19:10:33.801Z,75.30
2019-02-06T19:13:03.465Z,75.30
2019-02-06T19:15:33.550Z,75.20
2019-02-06T19:18:02.983Z,75.20
2019-02-06T19:20:32.313Z,75.20
2019-02-06T19:23:01.622Z,75.20
2019-02-06T19:25:30.889Z,75.20
2019-02-06T19:28:00.208Z,75.10
2019-02-06T19:30:31.447Z,75.10
2019-02-06T19:33:00.723Z,75.10
2019-02-06T19:35:30.112Z,75.10
2019-02-06T19:37:59.421Z,75.00
2019-02-06T19:40:28.709Z,75.10
2019-02-06T19:43:02.096Z,75.10
2019-02-06T19:45:28.910Z,75.10
2019-02-06T19:47:58.506Z,75.10
2019-02-06T19:50:30.220Z,75.10
2019-02-06T19:52:59.543Z,75.10
2019-02-06T19:55:29.008Z,75.10
2019-02-06T19:57:58.377Z,75.20
2019-02-06T20:00:29.341Z,75.30
2019-02-06T20:02:58.761Z,75.20
2019-02-06T20:05:28.281Z,75.30
2019-02-06T20:07:57.609Z,75.40
2019-02-06T20:10:32.876Z,75.40
2019-02-06T20:13:10.645Z,75.40
2019-02-06T20:15:33.282Z,75.50
2019-02-06T20:18:02.712Z,75.60
2019-02-06T20:20:32.480Z,75.60
2019-02-06T20:23:01.796Z,75.60
2019-02-06T20:25:31.144Z,75.70
2019-02-06T20:28:00.452Z,75.70
2019-02-06T20:30:29.818Z,75.60
2019-02-06T20:32:59.122Z,75.60
2019-02-06T20:35:28.707Z,75.60
2019-02-06T20:37:58.377Z,75.60
2019-02-06T20:40:32.658Z,76.50
2019-02-06T20:43:01.912Z,75.70
2019-02-06T20:45:31.673Z,75.70
2019-02-06T20:48:00.996Z,75.80
2019-02-06T20:50:31.470Z,75.80
2019-02-06T20:53:01.164Z,75.90
2019-02-06T20:55:30.460Z,75.80
2019-02-06T20:57:59.933Z,75.90
2019-02-06T21:00:34.645Z,75.80
2019-02-06T21:03:04.632Z,75.90
2019-02-06T21:05:33.911Z,76.00
2019-02-06T21:08:03.593Z,76.00
2019-02-06T21:10:32.899Z,76.20
2019-02-06T21:13:02.187Z,76.20
2019-02-06T21:15:32.922Z,76.20
2019-02-06T21:18:02.423Z,76.10
2019-02-06T21:20:31.897Z,76.10
2019-02-06T21:23:01.491Z,76.10
2019-02-06T21:25:30.775Z,76.20
2019-02-06T21:28:00.052Z,76.30
2019-02-06T21:30:31.318Z,76.30
2019-02-06T21:33:01.587Z,76.20
2019-02-06T21:35:31.025Z,76.20
2019-02-06T21:38:00.675Z,76.30
2019-02-06T21:40:31.835Z,76.40
2019-02-06T21:43:01.167Z,76.60
2019-02-06T21:45:30.478Z,77.40
2019-02-06T21:47:59.724Z,76.50
2019-02-06T21:50:29.036Z,76.60
2019-02-06T21:52:58.846Z,76.90
2019-02-06T21:55:28.202Z,76.70
2019-02-06T21:57:57.530Z,76.70
2019-02-06T22:00:29.033Z,76.80
2019-02-06T22:02:58.294Z,76.80
2019-02-06T22:05:27.794Z,76.90
2019-02-06T22:07:57.310Z,76.70
2019-02-06T22:10:26.582Z,76.70
2019-02-06T22:12:55.871Z,76.70
2019-02-06T22:15:26.666Z,76.80
2019-02-06T22:17:56.068Z,76.70
2019-02-06T22:20:25.826Z,76.60
2019-02-06T22:22:55.071Z,76.70
2019-02-06T22:25:24.482Z,76.70
2019-02-06T22:27:53.874Z,76.60
2019-02-06T22:30:24.746Z,76.70
2019-02-06T22:32:54.334Z,76.60
2019-02-06T22:35:24.066Z,76.60
2019-02-06T22:37:53.414Z,76.60
2019-02-06T22:40:23.797Z,76.60
2019-02-06T22:42:53.174Z,76.70
2019-02-06T22:45:24.250Z,76.60
2019-02-06T22:47:53.565Z,76.60
2019-02-06T22:50:24.613Z,76.60
2019-02-06T22:52:53.945Z,76.50
2019-02-06T22:55:23.303Z,76.60
2019-02-06T22:57:52.902Z,77.30
2019-02-06T23:00:53.367Z,76.40
2019-02-06T23:03:31.703Z,76.40
2019-02-06T23:06:01.101Z,76.40
2019-02-06T23:08:30.456Z,76.40
2019-02-06T23:11:00.045Z,76.30
2019-02-06T23:13:29.398Z,76.30
2019-02-06T23:15:59.638Z,76.30
2019-02-06T23:18:29.004Z,76.20
2019-02-06T23:20:58.261Z,76.30
2019-02-06T23:23:27.537Z,76.30
2019-02-06T23:25:57.185Z,76.20
2019-02-06T23:28:26.441Z,76.20
2019-02-06T23:30:55.711Z,76.20
2019-02-06T23:33:24.993Z,76.20
2019-02-06T23:35:54.313Z,76.10
2019-02-06T23:38:23.690Z,76.20
2019-02-06T23:40:52.948Z,76.20
2019-02-06T23:43:22.272Z,76.20
2019-02-06T23:45:51.549Z,76.20
2019-02-06T23:48:21.157Z,76.20
2019-02-06T23:50:50.537Z,76.30
2019-02-06T23:53:19.864Z,76.30
2019-02-06T23:55:49.204Z,76.40
2019-02-06T23:58:18.516Z,76.30
